KBAM/BAM METAR and TAF weather

Enter ICAO airport designator
Station Type Date Time Source
KBAM METAR 2019/04/21 22:15 UTC NOAA

KBAM 212215Z AUTO 31011G16KT 10SM BKN060 BKN070 13/01 A3006 RMK AO1


Station Type Date Time Source
KBAM Decoded METAR 2019/04/21 22:15 UTC NOAA

Station name not available
Apr 21, 2019 - 06:15 PM EDT / 2019.04.21 2215 UTC
Wind: from the NW (310 degrees) at 13 MPH (11 KT) gusting to 18 MPH (16 KT):0
Visibility: 10 mile(s):0
Sky conditions: mostly cloudy
Temperature: 55 F (13 C)
Dew Point: 33 F (1 C)
Relative Humidity: 43%
Pressure (altimeter): 30.06 in. Hg (1017 hPa)
ob: KBAM 212215Z AUTO 31011G16KT 10SM BKN060 BKN070 13/01 A3006 RMK AO1
cycle: 22

Station Type Date Time Source
KBAM TAF 2019/04/21 18:22 UTC NOAA

TAF KBAM 211720Z 2118/2218 34013KT P6SM -SHRA OVC050
FM211900 34012G22KT P6SM BKN060
FM220200 32010KT P6SM FEW200
FM221700 34012G19KT P6SM FEW200

Example: see airport list